Carnkie, United Kingdom

11:06 AM BST on April 26, 2015 (GMT +0100)
ICORNWAL26 | | Change Station
CLOSE
Current Station
Personal Weather Station
Location: Carnkie, Helston, Cornwall
Elevation: 551 ft
Nearby Weather Stations

Elev 551 ft 50.16 °N, 5.20 °W | Updated 45 seconds ago

Mostly Cloudy
Mostly Cloudy
50.4 °F
Feels Like 50.4 °F
N
6.9
Wind Variable Wind from NNW
Gusts 10.7 mph

Today
High -- | Low -- °F
--% Chance of Precip.
Yesterday
High -- | Low -- °F
Precip. -- in
6:06 AM 8:31 PM
First Quarter, 54% visible
Pressure 29.74 in
Visibility 6.2 miles
Clouds Few 1000 ft
Mostly Cloudy 10000 ft
Dew Point 50 °F
Humidity 97%
Rainfall 0.00 in
Snow Depth Not available.
UV 3 out of 12
Pollen Not available.
Air Quality Not available.
Flu Activity Not available.
METAR EGDR 260950Z 36010KT 9999 FEW010 BKN100 10/07 Q1007 BLU TEMPO SCT010 GRN

More Conditions Fewer Conditions

Pressure 29.74 in
Visibility 6.2 miles
Clouds Few 1000 ft
Mostly Cloudy 10000 ft
Dew Point 50 °F
Humidity 97%
Rainfall 0.00 in
Snow Depth Not available.
UV 3 out of 12
Pollen Not available.
Air Quality Not available.
Flu Activity Not available.
METAR EGDR 260950Z 36010KT 9999 FEW010 BKN100 10/07 Q1007 BLU TEMPO SCT010 GRN

More Conditions Fewer Conditions

10-Day Weather Forecast

Almanac

Astronomy

Apr. 26, 2015 Rise Set
Actual Time
Civil Twilight
Nautical Twilight
Astronomical Twilight
Moon
Length of Visible Light
Length of Day
Tomorrow will be .
, % of the Moon is Illuminated

Today's Extremes

Country Highs Country Lows

Community

WunderPhotos

Upload Photos

1,816,959 photos uploaded!

WunderBlogs® & News

Nearby

Air Quality

  Air Quality AQ Index Pollutant
Not available.

Snow Depth

Station Depth Elevation

Earthquake Activity

City Distance Mag. Time & Date
Minimum magnitude displayed is 2.5.

Coastal Water Temperatures

Place Temperature

Stations

Nearby Weather Stations

Station Location Temp. Windchill Dew Point Humidity Wind Precip. Elev Updated Type